Time;durP1;ratioP1;P1;durP2;ratioP2;P2;SDS_P1;SDS_P2;PMS_P1;PMS_P2;Temp;Humidity;BMP_temperature;BMP_pressure;BME280_temperature;BME280_humidity;BME280_pressure;Samples;Min_cycle;Max_cycle;Signal;HPM_P1;HPM_P2
2023/08/22 00:00:23;;;;;;;13.23;10.93;;;;;;;23.48;72.41;95142.75;4975650;28;20196;-84
2023/08/22 00:02:48;;;;;;;21.20;14.02;;;;;;;23.54;72.38;95166.63;4992963;28;20207;-84
2023/08/22 00:05:14;;;;;;;22.33;14.43;;;;;;;23.32;72.59;95131.38;4993011;28;20264;-84
2023/08/22 00:07:41;;;;;;;17.55;11.70;;;;;;;23.60;72.63;95175.47;4992989;28;20168;-84
2023/08/22 00:10:07;;;;;;;16.45;11.10;;;;;;;23.49;72.52;95168.59;4992778;28;20177;-83
2023/08/22 00:12:33;;;;;;;16.40;11.75;;;;;;;23.58;72.76;95181.13;4992910;28;20192;-84
2023/08/22 00:14:58;;;;;;;13.27;10.65;;;;;;;23.60;72.77;95186.22;4992724;28;20640;-83
2023/08/22 00:17:24;;;;;;;14.88;8.38;;;;;;;23.52;72.36;95176.91;4974784;28;20201;-84
2023/08/22 00:19:50;;;;;;;12.23;8.25;;;;;;;23.59;72.22;95184.63;4992775;28;20219;-84
2023/08/22 00:22:16;;;;;;;10.30;7.72;;;;;;;23.59;72.10;95185.41;4992778;28;20189;-84
2023/08/22 00:24:41;;;;;;;15.73;9.30;;;;;;;23.53;72.41;95170.41;4992446;28;20872;-84
2023/08/22 00:27:07;;;;;;;11.55;8.75;;;;;;;23.50;72.13;95159.44;4992873;28;20172;-83
2023/08/22 00:29:32;;;;;;;11.77;7.60;;;;;;;23.65;72.21;95184.28;4993084;28;20169;-84
2023/08/22 00:31:58;;;;;;;10.75;7.30;;;;;;;23.65;72.08;95172.72;4992779;28;20247;-84
2023/08/22 00:34:24;;;;;;;13.07;8.43;;;;;;;23.61;72.12;95164.41;4993049;28;20193;-84
2023/08/22 00:36:50;;;;;;;9.95;7.35;;;;;;;23.53;71.89;95140.84;4992914;28;20208;-84
2023/08/22 00:39:15;;;;;;;13.30;8.63;;;;;;;23.67;71.86;95163.28;4993252;28;20172;-84
2023/08/22 00:41:41;;;;;;;14.02;9.65;;;;;;;23.39;71.87;95121.06;4992639;28;20272;-84
2023/08/22 00:44:07;;;;;;;11.75;8.27;;;;;;;23.39;72.26;95139.09;4992637;28;20184;-84
2023/08/22 00:46:32;;;;;;;18.02;11.68;;;;;;;23.55;72.48;95164.75;4992932;28;20154;-83
2023/08/22 00:48:58;;;;;;;20.95;13.27;;;;;;;23.53;72.67;95169.59;4992902;28;20188;-84
2023/08/22 00:51:24;;;;;;;21.60;12.80;;;;;;;23.37;72.61;95150.13;4975128;28;20558;-84
2023/08/22 00:53:49;;;;;;;23.60;13.32;;;;;;;23.36;73.32;95163.81;4992601;28;20169;-84
2023/08/22 00:56:15;;;;;;;27.85;13.32;;;;;;;23.26;73.57;95159.38;4992413;28;20177;-84
2023/08/22 00:58:41;;;;;;;23.38;14.88;;;;;;;23.09;73.90;95148.25;4992449;28;20557;-84
2023/08/22 01:01:08;;;;;;;45.30;26.90;;;;;;;23.14;74.30;95167.78;4992446;28;20683;-84
2023/08/22 01:03:34;;;;;;;30.10;17.02;;;;;;;23.13;74.26;95168.06;4992416;28;20979;-84
2023/08/22 01:06:10;;;;;;;31.02;17.48;;;;;;;23.07;74.31;95159.25;4992468;28;20153;-84
2023/08/22 01:08:40;;;;;;;28.08;12.40;;;;;;;23.13;74.12;95160.00;4974991;28;20264;-84
2023/08/22 01:11:20;;;;;;;18.73;10.18;;;;;;;22.98;73.96;95125.22;4992718;28;20200;-84
2023/08/22 01:13:48;;;;;;;13.27;9.55;;;;;;;23.08;73.95;95160.88;4992416;28;20235;-84
2023/08/22 01:16:15;;;;;;;16.33;11.40;;;;;;;23.14;74.07;95173.16;4992636;28;20535;-83
2023/08/22 01:18:41;;;;;;;17.52;11.82;;;;;;;23.10;74.34;95172.13;4992318;28;20180;-84
2023/08/22 01:21:07;;;;;;;19.50;11.15;;;;;;;23.03;74.58;95170.84;4992410;28;20268;-84
2023/08/22 01:23:33;;;;;;;20.92;10.32;;;;;;;23.07;74.45;95182.63;4992635;28;20200;-82
2023/08/22 01:25:59;;;;;;;15.30;10.32;;;;;;;22.89;74.79;95150.00;4992339;28;20545;-83
2023/08/22 01:28:45;;;;;;;15.88;10.10;;;;;;;23.03;74.30;95173.53;4992181;28;20707;-84
2023/08/22 01:31:16;;;;;;;27.33;10.82;;;;;;;23.00;74.55;95174.91;4978476;28;20176;-84
2023/08/22 01:34:02;;;;;;;17.20;11.25;;;;;;;22.94;74.89;95168.75;4996076;28;20165;-84
2023/08/22 01:36:29;;;;;;;20.38;10.80;;;;;;;22.73;75.21;95145.81;4992024;28;20213;-84
2023/08/22 01:38:56;;;;;;;18.48;11.10;;;;;;;22.77;75.25;95154.13;4984874;28;20195;-84
2023/08/22 01:41:22;;;;;;;19.75;10.93;;;;;;;22.78;74.88;95158.41;4984829;28;20189;-84
2023/08/22 01:43:50;;;;;;;22.95;10.70;;;;;;;22.82;75.30;95175.56;4969446;28;20184;-82
2023/08/22 01:46:15;;;;;;;17.77;10.65;;;;;;;22.76;75.80;95172.09;4996190;28;20153;-84
2023/08/22 01:48:41;;;;;;;17.88;10.43;;;;;;;22.59;75.35;95150.19;4995566;28;20169;-84
2023/08/22 01:51:06;;;;;;;15.73;9.68;;;;;;;22.42;75.93;95133.66;4995843;28;20168;-84
2023/08/22 01:53:32;;;;;;;26.60;10.80;;;;;;;22.32;75.88;95131.81;4995482;28;20165;-84
2023/08/22 01:55:59;;;;;;;15.82;9.55;;;;;;;22.46;75.85;95150.81;4995458;28;20201;-84
2023/08/22 01:58:24;;;;;;;17.58;10.13;;;;;;;22.39;75.76;95139.59;4995725;28;20156;-84
2023/08/22 02:00:49;;;;;;;16.77;10.20;;;;;;;22.66;75.96;95174.03;4995579;28;20169;-83
2023/08/22 02:03:15;;;;;;;18.05;10.18;;;;;;;22.68;75.75;95172.66;4995370;28;20161;-83
2023/08/22 02:05:40;;;;;;;14.27;9.35;;;;;;;22.50;75.56;95143.78;4995310;28;20158;-84
2023/08/22 02:08:05;;;;;;;15.45;9.45;;;;;;;22.70;75.78;95173.19;4995762;28;20196;-83
2023/08/22 02:10:31;;;;;;;14.60;9.50;;;;;;;22.70;75.67;95172.41;4977714;28;20165;-83
2023/08/22 02:12:56;;;;;;;18.70;10.10;;;;;;;22.69;75.56;95170.78;4977767;28;20716;-84
2023/08/22 02:15:22;;;;;;;17.17;9.38;;;;;;;22.67;75.82;95170.25;4995345;28;20230;-83
2023/08/22 02:17:48;;;;;;;15.10;9.50;;;;;;;22.55;75.57;95151.84;4981881;28;20169;-83
2023/08/22 02:20:13;;;;;;;15.68;8.90;;;;;;;22.53;75.89;95146.75;4984063;28;20177;-83
2023/08/22 02:22:40;;;;;;;13.85;8.90;;;;;;;22.63;75.92;95175.41;4985460;28;20691;-84
2023/08/22 02:25:07;;;;;;;15.85;9.88;;;;;;;22.65;75.90;95175.13;4985611;28;20177;-83
2023/08/22 02:27:32;;;;;;;11.35;8.07;;;;;;;22.50;75.83;95155.34;4994654;28;20224;-83
2023/08/22 02:29:58;;;;;;;14.57;10.03;;;;;;;22.60;75.99;95165.22;4994295;28;20408;-83
2023/08/22 02:32:23;;;;;;;13.95;9.43;;;;;;;22.63;75.91;95178.06;4995400;28;20212;-83
2023/08/22 02:34:49;;;;;;;15.05;9.68;;;;;;;22.52;75.87;95163.09;4977315;28;20552;-84
2023/08/22 02:37:14;;;;;;;15.60;9.25;;;;;;;22.39;76.09;95143.09;4995090;28;20181;-83
2023/08/22 02:39:40;;;;;;;13.70;8.95;;;;;;;22.45;76.36;95158.06;4994937;28;20537;-83
2023/08/22 02:42:06;;;;;;;14.05;8.82;;;;;;;22.54;75.98;95174.38;4994053;28;20217;-83
2023/08/22 02:44:31;;;;;;;12.52;9.30;;;;;;;22.34;76.34;95155.69;4994567;28;20177;-83
2023/08/22 02:46:56;;;;;;;14.90;9.18;;;;;;;22.47;76.41;95184.63;4994902;28;20168;-83
2023/08/22 02:49:22;;;;;;;14.73;10.00;;;;;;;22.25;76.55;95152.78;4994706;28;20172;-84
2023/08/22 02:51:47;;;;;;;14.98;10.00;;;;;;;22.32;76.72;95171.25;4994716;28;20158;-83
2023/08/22 02:54:13;;;;;;;18.55;9.70;;;;;;;22.39;76.79;95179.84;4994385;28;20204;-84
2023/08/22 02:56:38;;;;;;;19.13;10.98;;;;;;;22.34;76.65;95182.53;4976922;28;20633;-84
2023/08/22 02:59:03;;;;;;;16.10;10.98;;;;;;;22.41;76.74;95185.72;4994618;28;20203;-83
2023/08/22 03:01:29;;;;;;;21.05;11.85;;;;;;;22.30;76.64;95168.88;4994159;28;20204;-83
2023/08/22 03:03:55;;;;;;;18.83;11.35;;;;;;;22.37;76.55;95185.47;4994428;28;20204;-84
2023/08/22 03:06:22;;;;;;;19.90;10.27;;;;;;;22.37;76.63;95190.84;4967953;28;20174;-83
2023/08/22 03:08:47;;;;;;;19.90;10.63;;;;;;;22.25;76.54;95170.78;4987641;28;20188;-83
2023/08/22 03:11:13;;;;;;;18.60;10.30;;;;;;;22.00;76.66;95139.50;4963154;28;20547;-83
2023/08/22 03:13:38;;;;;;;21.65;10.10;;;;;;;22.07;77.35;95190.97;4974607;28;20194;-84
2023/08/22 03:16:04;;;;;;;18.90;10.27;;;;;;;21.66;78.18;95133.97;4981503;28;20177;-83
2023/08/22 03:18:30;;;;;;;16.95;11.32;;;;;;;21.81;78.22;95158.84;4965642;28;20264;-83
2023/08/22 03:20:56;;;;;;;15.38;9.80;;;;;;;21.97;78.30;95175.72;4961773;28;20177;-83
2023/08/22 03:23:23;;;;;;;16.15;10.68;;;;;;;22.13;77.61;95187.22;4985008;28;20252;-84
2023/08/22 03:26:02;;;;;;;14.27;9.93;;;;;;;22.10;78.00;95188.56;4992876;28;20542;-81
2023/08/22 03:28:28;;;;;;;37.97;23.13;;;;;;;22.06;77.80;95190.16;4982606;28;20381;-81
2023/08/22 03:30:58;;;;;;;18.58;12.45;;;;;;;22.15;78.06;95201.13;4982893;28;20256;-81
2023/08/22 03:33:24;;;;;;;17.95;11.23;;;;;;;22.14;78.11;95192.28;4984920;28;20247;-84
2023/08/22 03:35:51;;;;;;;24.92;16.48;;;;;;;22.08;77.92;95193.38;4974095;28;20173;-84
2023/08/22 03:38:16;;;;;;;20.33;14.40;;;;;;;21.98;77.78;95174.63;4974381;28;20205;-84
2023/08/22 03:40:42;;;;;;;27.15;15.75;;;;;;;21.83;77.87;95159.38;4956674;28;20205;-84
2023/08/22 03:43:07;;;;;;;13.70;10.45;;;;;;;21.65;78.20;95145.78;4973919;28;20205;-85
2023/08/22 03:45:32;;;;;;;34.95;22.65;;;;;;;22.09;78.15;95204.91;4974201;28;20257;-84
2023/08/22 03:48:03;;;;;;;31.27;20.05;;;;;;;21.95;78.06;95193.94;4979922;28;20176;-85
2023/08/22 03:50:31;;;;;;;41.72;24.67;;;;;;;21.87;78.31;95186.47;4966544;28;20985;-84
2023/08/22 03:52:57;;;;;;;29.08;18.83;;;;;;;22.04;78.32;95205.75;4980317;28;20312;-85
2023/08/22 03:55:22;;;;;;;23.23;15.43;;;;;;;22.00;78.36;95199.31;4981902;28;20264;-85
2023/08/22 03:57:48;;;;;;;28.13;17.90;;;;;;;21.81;78.41;95179.50;4973809;28;20178;-85
2023/08/22 04:00:14;;;;;;;20.95;14.30;;;;;;;21.97;78.99;95202.53;4973790;28;20162;-84
2023/08/22 04:02:39;;;;;;;32.70;19.38;;;;;;;21.97;79.27;95210.56;4973617;28;20252;-85
2023/08/22 04:05:05;;;;;;;25.88;15.05;;;;;;;21.94;78.91;95199.56;4974307;28;20212;-84
2023/08/22 04:07:31;;;;;;;26.10;14.52;;;;;;;22.00;78.74;95199.31;4974002;28;20166;-85
2023/08/22 04:09:56;;;;;;;28.20;12.30;;;;;;;21.80;78.56;95161.81;4973669;28;20173;-84
2023/08/22 04:12:21;;;;;;;18.67;11.10;;;;;;;21.87;78.64;95173.06;4973659;28;20154;-85
2023/08/22 04:14:47;;;;;;;19.20;10.57;;;;;;;22.02;78.39;95193.69;4973532;28;20158;-85
2023/08/22 04:17:12;;;;;;;15.50;10.75;;;;;;;22.15;78.41;95201.94;4973548;28;20173;-85
2023/08/22 04:19:38;;;;;;;11.60;9.10;;;;;;;22.30;78.24;95211.00;4973506;28;20621;-85
2023/08/22 04:22:04;;;;;;;19.95;11.35;;;;;;;22.24;78.00;95171.84;4973528;28;20186;-84
2023/08/22 04:24:30;;;;;;;19.85;13.80;;;;;;;22.66;76.79;95201.66;4973450;28;20184;-84
2023/08/22 04:26:56;;;;;;;24.30;14.77;;;;;;;23.01;76.49;95211.41;4973833;28;20159;-84
2023/08/22 04:29:21;;;;;;;19.92;12.23;;;;;;;23.31;74.90;95215.75;4992858;28;20668;-83
2023/08/22 04:31:46;;;;;;;17.33;11.77;;;;;;;23.42;74.04;95190.41;4992990;28;20176;-82
2023/08/22 04:34:14;;;;;;;17.77;11.38;;;;;;;23.90;72.71;95211.97;4992519;28;20173;-83
2023/08/22 04:36:40;;;;;;;18.10;11.80;;;;;;;24.16;71.69;95216.00;4992908;28;20236;-82
2023/08/22 04:39:05;;;;;;;24.13;12.32;;;;;;;24.50;70.58;95225.84;4992741;28;20664;-83
2023/08/22 04:41:30;;;;;;;17.27;8.45;;;;;;;24.82;69.37;95234.81;4992633;28;20699;-83
2023/08/22 04:43:56;;;;;;;14.40;9.48;;;;;;;24.93;68.06;95222.03;4992918;28;20176;-82
2023/08/22 04:46:21;;;;;;;14.60;9.77;;;;;;;25.44;67.05;95250.88;4975251;28;20563;-82
2023/08/22 04:48:47;;;;;;;14.35;9.98;;;;;;;25.73;65.98;95238.03;4992472;28;20172;-82
2023/08/22 04:51:13;;;;;;;30.67;12.15;;;;;;;25.97;64.45;95210.06;4992698;28;20157;-82
2023/08/22 04:53:38;;;;;;;26.58;14.02;;;;;;;26.60;62.72;95238.00;4992478;28;20656;-82
2023/08/22 04:56:03;;;;;;;14.15;8.50;;;;;;;27.23;61.38;95252.59;4992417;28;20223;-82
2023/08/22 04:58:29;;;;;;;14.20;11.02;;;;;;;27.44;59.90;95223.94;4974989;28;20204;-82
2023/08/22 05:00:54;;;;;;;16.98;9.80;;;;;;;28.15;58.38;95260.06;4992370;28;20185;-82
2023/08/22 05:03:21;;;;;;;18.30;12.27;;;;;;;28.54;57.12;95249.22;4992436;28;20228;-82
2023/08/22 05:05:47;;;;;;;13.70;9.98;;;;;;;29.22;55.39;95263.28;4996159;28;20691;-82
2023/08/22 05:08:12;;;;;;;19.20;10.38;;;;;;;29.66;53.80;95255.94;4996856;28;20165;-82
2023/08/22 05:10:38;;;;;;;11.38;8.93;;;;;;;30.19;52.78;95269.88;4996219;28;20162;-82
2023/08/22 05:13:03;;;;;;;21.08;10.93;;;;;;;30.63;51.11;95262.38;4996330;28;20180;-82
2023/08/22 05:15:29;;;;;;;15.63;9.65;;;;;;;30.88;50.04;95236.94;4996270;28;20159;-82
2023/08/22 05:17:54;;;;;;;17.48;9.30;;;;;;;31.51;49.06;95265.00;4996548;28;20220;-82
2023/08/22 05:20:20;;;;;;;13.73;9.27;;;;;;;31.78;47.92;95252.75;4996390;28;20227;-82
2023/08/22 05:22:45;;;;;;;15.80;8.98;;;;;;;32.19;47.05;95255.38;4995649;28;20196;-82
2023/08/22 05:25:11;;;;;;;21.10;15.23;;;;;;;32.69;46.14;95267.97;4995672;28;20161;-82
2023/08/22 05:27:36;;;;;;;15.77;10.32;;;;;;;33.05;44.90;95250.75;4995525;28;20308;-82
2023/08/22 05:30:02;;;;;;;17.20;9.85;;;;;;;33.27;44.23;95244.03;4995626;28;20181;-81
2023/08/22 05:32:28;;;;;;;18.58;10.15;;;;;;;33.25;44.13;95210.81;4977930;28;20177;-81
2023/08/22 05:34:54;;;;;;;21.02;11.07;;;;;;;33.87;43.08;95244.97;4995622;28;20179;-82
2023/08/22 05:37:19;;;;;;;12.77;8.93;;;;;;;34.33;42.28;95268.09;4995739;28;20687;-81
2023/08/22 05:39:44;;;;;;;12.52;9.18;;;;;;;34.53;41.65;95253.34;4995610;28;20209;-81
2023/08/22 05:42:10;;;;;;;15.40;11.05;;;;;;;34.83;40.88;95253.69;4995629;28;20200;-82
2023/08/22 05:44:35;;;;;;;19.30;11.65;;;;;;;35.30;40.19;95269.22;4978240;28;20277;-82
2023/08/22 05:47:02;;;;;;;15.05;10.55;;;;;;;35.45;40.22;95244.53;4995510;28;20632;-82
2023/08/22 05:49:27;;;;;;;16.27;10.15;;;;;;;35.92;38.52;95273.69;4995515;28;20165;-82
2023/08/22 05:52:04;;;;;;;14.75;10.63;;;;;;;36.20;38.22;95251.50;4995145;28;20173;-82
2023/08/22 05:54:31;;;;;;;12.07;9.80;;;;;;;36.69;37.06;95259.81;4971540;28;20621;-82
2023/08/22 05:56:56;;;;;;;16.67;12.77;;;;;;;37.08;36.34;95252.19;4993472;28;20181;-81
2023/08/22 05:59:25;;;;;;;22.20;14.13;;;;;;;37.31;36.61;95254.88;4994192;28;20173;-82
2023/08/22 06:01:50;;;;;;;20.60;15.63;;;;;;;37.47;35.98;95258.22;4990846;28;20277;-83
2023/08/22 06:04:17;;;;;;;16.42;11.20;;;;;;;37.63;35.78;95250.59;4976322;28;20212;-81
2023/08/22 06:06:44;;;;;;;12.65;10.75;;;;;;;37.73;35.36;95241.69;4976456;28;20162;-82
2023/08/22 06:09:09;;;;;;;13.45;10.13;;;;;;;37.81;35.24;95255.50;4994034;28;20188;-82
2023/08/22 06:11:35;;;;;;;23.60;11.55;;;;;;;37.59;35.05;95227.75;4986656;28;20173;-83
2023/08/22 06:14:00;;;;;;;16.38;10.77;;;;;;;37.91;35.09;95261.13;4977204;28;20632;-84
2023/08/22 06:16:25;;;;;;;15.57;11.35;;;;;;;37.58;35.51;95242.66;4991305;28;20196;-83
2023/08/22 06:18:51;;;;;;;14.13;9.75;;;;;;;37.46;36.08;95261.34;4994779;28;20173;-84
2023/08/22 06:21:16;;;;;;;18.52;15.20;;;;;;;37.54;35.81;95247.31;4995431;28;20602;-79
2023/08/22 06:23:42;;;;;;;18.48;10.93;;;;;;;37.27;36.18;95256.78;4995313;28;20158;-80
2023/08/22 06:26:10;;;;;;;14.82;9.52;;;;;;;36.54;37.34;95225.03;4993184;28;20543;-80
2023/08/22 06:28:35;;;;;;;10.95;8.63;;;;;;;36.19;37.64;95247.16;4975178;28;20705;-79
2023/08/22 06:31:03;;;;;;;12.18;9.05;;;;;;;35.49;39.52;95225.41;4987302;28;20173;-79
2023/08/22 06:33:29;;;;;;;14.07;9.10;;;;;;;35.20;40.47;95237.72;4977454;28;20534;-80
2023/08/22 06:35:55;;;;;;;14.07;9.50;;;;;;;35.04;40.88;95235.00;4994504;28;20647;-80
2023/08/22 06:38:20;;;;;;;15.93;9.25;;;;;;;35.42;40.65;95250.72;4994827;28;20520;-80
2023/08/22 06:40:45;;;;;;;9.75;8.40;;;;;;;35.48;40.91;95246.53;4992833;28;20169;-80
2023/08/22 06:43:11;;;;;;;12.50;8.45;;;;;;;35.56;39.79;95247.47;4992184;28;20197;-79
2023/08/22 06:45:36;;;;;;;9.02;7.63;;;;;;;35.27;39.93;95239.84;4974923;28;20192;-81
2023/08/22 06:48:02;;;;;;;9.70;8.38;;;;;;;35.05;40.29;95254.97;4994506;28;20175;-82
2023/08/22 06:50:27;;;;;;;9.55;7.82;;;;;;;34.36;41.84;95231.81;4993988;28;20185;-82
2023/08/22 06:52:53;;;;;;;10.20;7.55;;;;;;;34.34;41.71;95248.56;4994295;28;20161;-82
2023/08/22 06:55:18;;;;;;;11.75;7.97;;;;;;;33.81;42.63;95221.78;4994066;28;20161;-82
2023/08/22 06:57:43;;;;;;;9.30;7.30;;;;;;;33.92;42.60;95234.56;4993404;28;20231;-81
2023/08/22 07:00:16;;;;;;;9.00;7.28;;;;;;;33.97;43.14;95228.06;4976563;28;20647;-81
2023/08/22 07:02:43;;;;;;;13.50;7.13;;;;;;;33.84;42.64;95221.06;4993640;28;20573;-79
2023/08/22 07:05:09;;;;;;;12.40;7.30;;;;;;;33.90;42.71;95236.06;4993709;28;20192;-80
2023/08/22 07:07:36;;;;;;;14.27;8.23;;;;;;;33.79;44.28;95218.59;4994444;28;20617;-80
2023/08/22 07:10:04;;;;;;;14.48;7.13;;;;;;;33.96;43.64;95237.41;4976396;28;20219;-79
2023/08/22 07:12:29;;;;;;;12.68;7.60;;;;;;;33.71;43.53;95217.59;4993507;28;20669;-81
2023/08/22 07:14:54;;;;;;;12.90;8.45;;;;;;;33.88;43.63;95236.41;4993820;28;20204;-81
2023/08/22 07:17:20;;;;;;;12.43;8.60;;;;;;;33.96;42.78;95234.66;4976185;28;20261;-82
2023/08/22 07:19:45;;;;;;;15.40;7.90;;;;;;;33.86;43.43;95227.78;4960080;28;20224;-80
2023/08/22 07:22:10;;;;;;;9.80;7.53;;;;;;;33.29;43.88;95217.19;4991335;28;20284;-80
2023/08/22 07:24:36;;;;;;;14.32;7.50;;;;;;;33.23;44.70;95233.00;4989973;28;20644;-80
2023/08/22 07:27:01;;;;;;;13.90;8.13;;;;;;;33.39;45.07;95219.41;4990194;28;20180;-81
2023/08/22 07:29:27;;;;;;;15.50;8.18;;;;;;;33.92;43.89;95229.09;4989355;28;20221;-81
2023/08/22 07:31:57;;;;;;;11.02;7.50;;;;;;;34.25;42.67;95231.53;4990303;28;20311;-81
2023/08/22 07:34:23;;;;;;;12.85;7.32;;;;;;;34.55;42.57;95228.38;4990766;28;20189;-81
2023/08/22 07:36:49;;;;;;;11.93;7.80;;;;;;;34.76;43.07;95224.22;4990368;28;20213;-80
2023/08/22 07:39:15;;;;;;;9.13;7.47;;;;;;;34.88;43.64;95209.63;4991441;28;20260;-80
2023/08/22 07:41:41;;;;;;;12.57;7.20;;;;;;;35.26;42.53;95225.34;4991257;28;20243;-80
2023/08/22 07:44:06;;;;;;;10.02;6.80;;;;;;;35.47;40.20;95235.94;4991252;28;20181;-80
2023/08/22 07:46:34;;;;;;;11.50;6.80;;;;;;;35.51;39.87;95226.66;4991266;28;20192;-79
2023/08/22 07:48:59;;;;;;;11.85;7.40;;;;;;;35.47;41.04;95224.97;4991292;28;20205;-80
2023/08/22 07:51:24;;;;;;;12.82;7.75;;;;;;;35.31;40.68;95227.00;4991242;28;20260;-81
2023/08/22 07:53:50;;;;;;;10.35;6.60;;;;;;;35.00;41.20;95219.66;4991291;28;20224;-82
2023/08/22 07:56:15;;;;;;;9.05;6.50;;;;;;;34.83;41.43;95211.84;4991144;28;20188;-81
2023/08/22 07:58:41;;;;;;;12.00;7.13;;;;;;;34.86;40.44;95233.00;4991131;28;20173;-79
2023/08/22 08:01:07;;;;;;;10.95;7.10;;;;;;;34.78;41.67;95227.38;4991259;28;20181;-79
2023/08/22 08:03:32;;;;;;;10.23;6.90;;;;;;;34.71;40.67;95226.41;4991197;28;20603;-79
2023/08/22 08:05:58;;;;;;;12.23;7.15;;;;;;;34.27;40.88;95209.31;4991150;28;20259;-80
2023/08/22 08:08:23;;;;;;;12.82;6.90;;;;;;;34.39;40.53;95217.44;4973499;28;20676;-81
2023/08/22 08:10:50;;;;;;;9.80;6.65;;;;;;;34.04;41.61;95215.38;4991028;28;20181;-80
2023/08/22 08:13:15;;;;;;;9.02;6.95;;;;;;;33.82;42.55;95180.41;4973379;28;20621;-82
2023/08/22 08:15:42;;;;;;;12.95;6.82;;;;;;;34.30;41.85;95214.09;4991040;28;20201;-85
2023/08/22 08:18:09;;;;;;;8.30;6.88;;;;;;;34.26;41.40;95203.03;4990766;28;20177;-81
2023/08/22 08:20:35;;;;;;;12.35;6.82;;;;;;;34.37;42.66;95219.72;4990862;28;20177;-81
2023/08/22 08:23:01;;;;;;;11.45;6.93;;;;;;;34.69;40.23;95215.81;4990726;28;20259;-80
2023/08/22 08:25:27;;;;;;;9.38;6.75;;;;;;;35.05;39.97;95216.63;4990818;28;20220;-80
2023/08/22 08:27:52;;;;;;;12.02;7.43;;;;;;;35.05;39.54;95216.63;4990615;28;20170;-80
2023/08/22 08:30:17;;;;;;;6.90;6.25;;;;;;;34.99;40.24;95204.38;4990536;28;20769;-80
2023/08/22 08:32:43;;;;;;;8.32;5.93;;;;;;;35.27;39.10;95215.97;4990651;28;20184;-80
2023/08/22 08:35:09;;;;;;;12.60;7.32;;;;;;;35.34;39.63;95207.91;4990523;28;20352;-80
2023/08/22 08:37:35;;;;;;;13.57;6.75;;;;;;;35.08;37.79;95213.97;4990750;28;20664;-79
2023/08/22 08:40:00;;;;;;;8.63;6.60;;;;;;;34.96;38.27;95221.50;4972295;28;20276;-80
2023/08/22 08:42:26;;;;;;;12.00;7.35;;;;;;;34.65;38.31;95195.78;4990504;28;20304;-79
2023/08/22 08:44:52;;;;;;;7.97;7.18;;;;;;;34.88;39.79;95203.34;4990441;28;20216;-79
2023/08/22 08:47:17;;;;;;;15.10;9.00;;;;;;;35.26;39.59;95208.13;4991040;28;20223;-80
2023/08/22 08:49:42;;;;;;;11.43;7.00;;;;;;;34.80;37.86;95178.56;4990411;28;20196;-79
2023/08/22 08:52:10;;;;;;;11.75;6.40;;;;;;;34.71;38.47;95197.09;4972851;28;20272;-79
2023/08/22 08:54:36;;;;;;;11.85;6.70;;;;;;;34.58;38.34;95206.56;4990625;28;20629;-81
2023/08/22 08:57:02;;;;;;;9.38;6.70;;;;;;;34.80;38.12;95203.19;4973277;28;20183;-81
2023/08/22 08:59:29;;;;;;;8.65;6.10;;;;;;;34.62;37.32;95204.69;4990239;28;20216;-78
2023/08/22 09:01:54;;;;;;;11.75;6.75;;;;;;;34.57;37.20;95204.97;4990293;28;20200;-81
2023/08/22 09:04:20;;;;;;;10.80;6.22;;;;;;;34.33;38.40;95195.03;4990359;28;20196;-82
2023/08/22 09:06:46;;;;;;;11.73;6.20;;;;;;;34.00;37.59;95206.28;4972757;28;20335;-81
2023/08/22 09:09:13;;;;;;;10.63;5.70;;;;;;;33.84;38.42;95194.53;4990396;28;20220;-81
2023/08/22 09:11:44;;;;;;;8.40;5.07;;;;;;;34.03;37.44;95202.84;4990184;28;20685;-82
2023/08/22 09:14:10;;;;;;;12.90;5.45;;;;;;;34.01;36.96;95177.00;4990228;28;20192;-81
2023/08/22 09:16:35;;;;;;;9.02;5.60;;;;;;;34.17;36.51;95201.59;4990070;28;20567;-76
2023/08/22 09:19:01;;;;;;;14.13;6.28;;;;;;;34.06;35.80;95179.50;4990265;28;20196;-77
2023/08/22 09:21:27;;;;;;;8.75;5.40;;;;;;;33.80;36.62;95171.78;4989869;28;20201;-77
2023/08/22 09:23:52;;;;;;;9.25;4.90;;;;;;;33.90;37.54;95184.16;4990229;28;20188;-78
2023/08/22 09:26:24;;;;;;;10.10;5.63;;;;;;;34.00;36.57;95187.13;4990457;28;20203;-77
2023/08/22 09:28:50;;;;;;;8.48;5.30;;;;;;;33.45;36.55;95182.53;4990338;28;20185;-77
2023/08/22 09:31:23;;;;;;;10.20;5.65;;;;;;;33.55;37.01;95170.31;4991250;28;20228;-78
2023/08/22 09:33:49;;;;;;;8.20;5.28;;;;;;;33.79;36.87;95161.22;4991435;28;20181;-78
2023/08/22 09:36:21;;;;;;;8.95;4.78;;;;;;;34.03;35.79;95180.97;4992153;28;20267;-77
2023/08/22 09:38:57;;;;;;;9.23;5.05;;;;;;;33.87;35.29;95154.78;4991920;28;20225;-76
2023/08/22 09:41:27;;;;;;;10.05;5.40;;;;;;;34.03;37.05;95169.25;4990027;28;20208;-76
2023/08/22 09:43:54;;;;;;;7.63;4.80;;;;;;;33.89;33.50;95169.69;4990964;28;20177;-79
2023/08/22 09:46:21;;;;;;;8.50;4.45;;;;;;;33.63;33.68;95169.38;4990946;28;20211;-76
2023/08/22 09:48:49;;;;;;;11.05;6.07;;;;;;;33.69;35.12;95160.56;4989857;28;20181;-77
2023/08/22 09:51:18;;;;;;;9.13;5.13;;;;;;;33.79;34.59;95161.22;4992119;28;20196;-77
2023/08/22 09:53:49;;;;;;;11.13;4.63;;;;;;;33.97;35.11;95146.06;4993512;28;20231;-77
2023/08/22 09:56:15;;;;;;;7.85;4.70;;;;;;;34.19;34.69;95153.63;4993322;28;20227;-77
2023/08/22 09:58:41;;;;;;;8.45;4.55;;;;;;;34.07;33.62;95120.94;4993208;28;20177;-76
2023/08/22 10:01:07;;;;;;;13.98;4.63;;;;;;;34.05;33.74;95132.22;4994249;28;20185;-78
2023/08/22 10:03:34;;;;;;;7.68;5.38;;;;;;;34.01;34.78;95138.72;4995020;28;20158;-78
2023/08/22 10:06:01;;;;;;;9.80;4.80;;;;;;;34.09;34.80;95144.03;4986560;28;20177;-77
2023/08/22 10:08:26;;;;;;;10.27;4.65;;;;;;;34.11;33.20;95143.66;4994766;28;20181;-78
2023/08/22 10:10:52;;;;;;;6.25;4.57;;;;;;;34.00;33.49;95127.00;4991282;28;20328;-77
2023/08/22 10:13:21;;;;;;;5.95;4.57;;;;;;;34.03;34.31;95120.03;4971525;28;20620;-78
2023/08/22 10:15:48;;;;;;;9.50;4.45;;;;;;;33.96;32.56;95115.22;4988671;28;20646;-78
2023/08/22 10:18:14;;;;;;;8.98;4.78;;;;;;;33.82;33.33;95131.22;4991488;28;20186;-78
2023/08/22 10:20:40;;;;;;;7.20;5.03;;;;;;;33.82;33.74;95128.50;4993823;28;20177;-78
2023/08/22 10:23:08;;;;;;;6.40;4.35;;;;;;;33.68;33.16;95125.38;4991799;28;20251;-78
2023/08/22 10:25:49;;;;;;;7.75;5.20;;;;;;;33.58;35.01;95102.09;4994795;28;20169;-78
2023/08/22 10:28:16;;;;;;;9.82;4.70;;;;;;;33.50;33.40;95124.13;4994561;28;20183;-78
2023/08/22 10:31:03;;;;;;;5.22;4.10;;;;;;;33.45;33.29;95111.53;4993207;28;20230;-78
2023/08/22 10:33:28;;;;;;;10.55;4.75;;;;;;;33.26;33.44;95095.81;4992317;28;20181;-78
2023/08/22 10:36:04;;;;;;;5.93;4.82;;;;;;;33.50;33.73;95122.19;4992370;28;20189;-78
2023/08/22 10:38:47;;;;;;;5.95;4.35;;;;;;;33.42;32.88;95114.94;4992957;28;20228;-78
2023/08/22 10:41:13;;;;;;;8.13;5.30;;;;;;;33.29;33.69;95113.44;4992238;28;20609;-78
2023/08/22 10:43:38;;;;;;;6.20;4.68;;;;;;;33.32;34.33;95116.25;4992577;28;20177;-78
2023/08/22 10:46:04;;;;;;;8.80;5.18;;;;;;;33.40;34.12;95111.78;4992410;28;20240;-78
2023/08/22 10:48:29;;;;;;;6.40;4.82;;;;;;;33.45;34.25;95111.53;4992283;28;20557;-78
2023/08/22 10:51:05;;;;;;;10.80;5.00;;;;;;;33.49;34.37;95089.75;4992201;28;20639;-78
2023/08/22 10:53:43;;;;;;;9.05;4.90;;;;;;;33.62;34.66;95102.22;4985449;28;20212;-78
2023/08/22 10:56:23;;;;;;;5.85;4.60;;;;;;;33.68;34.40;95098.06;4992260;28;20204;-78
2023/08/22 10:59:02;;;;;;;8.10;4.80;;;;;;;33.75;34.49;95084.59;4992419;28;20189;-78
2023/08/22 11:01:29;;;;;;;6.25;4.88;;;;;;;33.95;35.41;95102.69;4991497;28;22150;-78
2023/08/22 11:03:55;;;;;;;5.75;4.55;;;;;;;33.96;33.53;95104.28;4992196;28;20188;-78
2023/08/22 11:06:23;;;;;;;9.55;4.75;;;;;;;33.79;33.42;95101.09;4992067;28;20660;-79
2023/08/22 11:08:48;;;;;;;5.45;4.80;;;;;;;33.59;33.02;95086.50;4974814;28;20192;-78
2023/08/22 11:11:16;;;;;;;6.22;4.47;;;;;;;33.44;33.77;95109.94;4992218;28;20192;-78
2023/08/22 11:13:42;;;;;;;9.15;4.60;;;;;;;33.42;34.75;95106.75;4991932;28;20557;-78
2023/08/22 11:16:11;;;;;;;7.07;4.68;;;;;;;33.52;34.33;95105.47;4974670;28;20740;-78
2023/08/22 11:18:38;;;;;;;7.55;4.82;;;;;;;33.50;34.12;95107.75;4991780;28;20243;-78
2023/08/22 11:21:04;;;;;;;6.95;4.57;;;;;;;33.56;34.71;95098.13;4991867;28;20177;-78